sensor_id;sensor_type;location;lat;lon;timestamp;temperature;humidity
26803;DHT22;14378;51.796;5.808;2024-02-28T00:00:58;4.10;99.90
26803;DHT22;14378;51.796;5.808;2024-02-28T00:03:03;4.00;99.90
26803;DHT22;14378;51.796;5.808;2024-02-28T00:05:09;4.00;99.90
26803;DHT22;14378;51.796;5.808;2024-02-28T00:07:10;4.00;99.90
26803;DHT22;14378;51.796;5.808;2024-02-28T00:09:16;3.90;99.90
26803;DHT22;14378;51.796;5.808;2024-02-28T00:11:17;3.90;99.90
26803;DHT22;14378;51.796;5.808;2024-02-28T00:13:17;3.90;99.90
26803;DHT22;14378;51.796;5.808;2024-02-28T00:15:26;3.90;99.90
26803;DHT22;14378;51.796;5.808;2024-02-28T00:17:27;3.90;99.90
26803;DHT22;14378;51.796;5.808;2024-02-28T00:19:32;3.90;99.90
26803;DHT22;14378;51.796;5.808;2024-02-28T00:21:37;3.80;99.90
26803;DHT22;14378;51.796;5.808;2024-02-28T00:23:38;3.80;99.90
26803;DHT22;14378;51.796;5.808;2024-02-28T00:25:39;3.80;99.90
26803;DHT22;14378;51.796;5.808;2024-02-28T00:27:46;3.80;99.90
26803;DHT22;14378;51.796;5.808;2024-02-28T00:29:48;3.70;99.90
26803;DHT22;14378;51.796;5.808;2024-02-28T00:31:54;3.70;99.90
26803;DHT22;14378;51.796;5.808;2024-02-28T00:33:55;3.70;99.90
26803;DHT22;14378;51.796;5.808;2024-02-28T00:35:56;3.70;99.90
26803;DHT22;14378;51.796;5.808;2024-02-28T00:37:57;3.70;99.90
26803;DHT22;14378;51.796;5.808;2024-02-28T00:39:58;3.70;99.90
26803;DHT22;14378;51.796;5.808;2024-02-28T00:41:59;3.80;99.90
26803;DHT22;14378;51.796;5.808;2024-02-28T00:44:02;3.70;99.90
26803;DHT22;14378;51.796;5.808;2024-02-28T00:46:04;3.70;99.90
26803;DHT22;14378;51.796;5.808;2024-02-28T00:48:05;3.80;99.90
26803;DHT22;14378;51.796;5.808;2024-02-28T00:50:06;3.80;99.90
26803;DHT22;14378;51.796;5.808;2024-02-28T00:52:07;3.80;99.90
26803;DHT22;14378;51.796;5.808;2024-02-28T00:54:08;3.70;99.90
26803;DHT22;14378;51.796;5.808;2024-02-28T00:56:09;3.70;99.90
26803;DHT22;14378;51.796;5.808;2024-02-28T00:58:10;3.70;99.90
26803;DHT22;14378;51.796;5.808;2024-02-28T01:00:12;3.80;99.90
26803;DHT22;14378;51.796;5.808;2024-02-28T01:02:13;3.70;99.90
26803;DHT22;14378;51.796;5.808;2024-02-28T01:04:14;3.70;99.90
26803;DHT22;14378;51.796;5.808;2024-02-28T01:06:15;3.70;99.90
26803;DHT22;14378;51.796;5.808;2024-02-28T01:08:22;3.70;99.90
26803;DHT22;14378;51.796;5.808;2024-02-28T01:10:24;3.70;99.90
26803;DHT22;14378;51.796;5.808;2024-02-28T01:12:24;3.60;99.90
26803;DHT22;14378;51.796;5.808;2024-02-28T01:14:26;3.60;99.90
26803;DHT22;14378;51.796;5.808;2024-02-28T01:16:26;3.70;99.90
26803;DHT22;14378;51.796;5.808;2024-02-28T01:18:28;3.60;99.90
26803;DHT22;14378;51.796;5.808;2024-02-28T01:20:31;3.70;99.90
26803;DHT22;14378;51.796;5.808;2024-02-28T01:22:32;3.70;99.90
26803;DHT22;14378;51.796;5.808;2024-02-28T01:24:37;3.60;99.90
26803;DHT22;14378;51.796;5.808;2024-02-28T01:26:38;3.60;99.90
26803;DHT22;14378;51.796;5.808;2024-02-28T01:28:38;3.70;99.90
26803;DHT22;14378;51.796;5.808;2024-02-28T01:30:40;3.60;99.90
26803;DHT22;14378;51.796;5.808;2024-02-28T01:32:40;3.60;99.90
26803;DHT22;14378;51.796;5.808;2024-02-28T01:34:41;3.60;99.90
26803;DHT22;14378;51.796;5.808;2024-02-28T01:36:42;3.60;99.90
26803;DHT22;14378;51.796;5.808;2024-02-28T01:38:43;3.60;99.90
26803;DHT22;14378;51.796;5.808;2024-02-28T01:40:47;3.60;99.90
26803;DHT22;14378;51.796;5.808;2024-02-28T01:42:48;3.60;99.90
26803;DHT22;14378;51.796;5.808;2024-02-28T01:44:49;3.60;99.90
26803;DHT22;14378;51.796;5.808;2024-02-28T01:46:51;3.60;99.90
26803;DHT22;14378;51.796;5.808;2024-02-28T01:48:56;3.50;99.90
26803;DHT22;14378;51.796;5.808;2024-02-28T01:50:58;3.50;99.90
26803;DHT22;14378;51.796;5.808;2024-02-28T01:53:00;3.50;99.90
26803;DHT22;14378;51.796;5.808;2024-02-28T01:55:01;3.50;99.90
26803;DHT22;14378;51.796;5.808;2024-02-28T01:57:05;3.50;99.90
26803;DHT22;14378;51.796;5.808;2024-02-28T01:59:07;3.50;99.90
26803;DHT22;14378;51.796;5.808;2024-02-28T02:01:11;3.40;99.90
26803;DHT22;14378;51.796;5.808;2024-02-28T02:03:14;3.40;99.90
26803;DHT22;14378;51.796;5.808;2024-02-28T02:05:15;3.40;99.90
26803;DHT22;14378;51.796;5.808;2024-02-28T02:07:16;3.40;99.90
26803;DHT22;14378;51.796;5.808;2024-02-28T02:09:17;3.40;99.90
26803;DHT22;14378;51.796;5.808;2024-02-28T02:11:18;3.40;99.90
26803;DHT22;14378;51.796;5.808;2024-02-28T02:13:19;3.40;99.90
26803;DHT22;14378;51.796;5.808;2024-02-28T02:15:20;3.40;99.90
26803;DHT22;14378;51.796;5.808;2024-02-28T02:17:21;3.40;99.90
26803;DHT22;14378;51.796;5.808;2024-02-28T02:19:23;3.40;99.90
26803;DHT22;14378;51.796;5.808;2024-02-28T02:21:30;3.40;99.90
26803;DHT22;14378;51.796;5.808;2024-02-28T02:23:31;3.40;99.90
26803;DHT22;14378;51.796;5.808;2024-02-28T02:25:33;3.30;99.90
26803;DHT22;14378;51.796;5.808;2024-02-28T02:27:34;3.30;99.90
26803;DHT22;14378;51.796;5.808;2024-02-28T02:29:35;3.30;99.90
26803;DHT22;14378;51.796;5.808;2024-02-28T02:31:36;3.30;99.90
26803;DHT22;14378;51.796;5.808;2024-02-28T02:33:37;3.30;99.90
26803;DHT22;14378;51.796;5.808;2024-02-28T02:35:38;3.30;99.90
26803;DHT22;14378;51.796;5.808;2024-02-28T02:37:43;3.30;99.90
26803;DHT22;14378;51.796;5.808;2024-02-28T02:39:46;3.20;99.90
26803;DHT22;14378;51.796;5.808;2024-02-28T02:41:47;3.30;99.90
26803;DHT22;14378;51.796;5.808;2024-02-28T02:43:48;3.20;99.90
26803;DHT22;14378;51.796;5.808;2024-02-28T02:45:49;3.20;99.90
26803;DHT22;14378;51.796;5.808;2024-02-28T02:47:50;3.20;99.90
26803;DHT22;14378;51.796;5.808;2024-02-28T02:49:51;3.20;99.90
26803;DHT22;14378;51.796;5.808;2024-02-28T02:51:57;3.20;99.90
26803;DHT22;14378;51.796;5.808;2024-02-28T02:54:19;3.20;99.90
26803;DHT22;14378;51.796;5.808;2024-02-28T02:56:27;3.20;99.90
26803;DHT22;14378;51.796;5.808;2024-02-28T02:58:33;3.20;99.90
26803;DHT22;14378;51.796;5.808;2024-02-28T03:00:43;3.20;99.90
26803;DHT22;14378;51.796;5.808;2024-02-28T03:02:45;3.20;99.90
26803;DHT22;14378;51.796;5.808;2024-02-28T03:04:49;3.10;99.90
26803;DHT22;14378;51.796;5.808;2024-02-28T03:06:50;3.10;99.90
26803;DHT22;14378;51.796;5.808;2024-02-28T03:08:51;3.10;99.90
26803;DHT22;14378;51.796;5.808;2024-02-28T03:10:52;3.00;99.90
26803;DHT22;14378;51.796;5.808;2024-02-28T03:12:58;3.00;99.90
26803;DHT22;14378;51.796;5.808;2024-02-28T03:14:59;3.00;99.90
26803;DHT22;14378;51.796;5.808;2024-02-28T03:17:00;3.00;99.90
26803;DHT22;14378;51.796;5.808;2024-02-28T03:19:01;3.00;99.90
26803;DHT22;14378;51.796;5.808;2024-02-28T03:21:08;3.00;99.90
26803;DHT22;14378;51.796;5.808;2024-02-28T03:23:09;3.00;99.90
26803;DHT22;14378;51.796;5.808;2024-02-28T03:25:10;3.00;99.90
26803;DHT22;14378;51.796;5.808;2024-02-28T03:27:12;3.00;99.90
26803;DHT22;14378;51.796;5.808;2024-02-28T03:29:12;3.00;99.90
26803;DHT22;14378;51.796;5.808;2024-02-28T03:31:13;3.00;99.90
26803;DHT22;14378;51.796;5.808;2024-02-28T03:33:14;3.00;99.90
26803;DHT22;14378;51.796;5.808;2024-02-28T03:35:15;3.00;99.90
26803;DHT22;14378;51.796;5.808;2024-02-28T03:37:16;3.00;99.90
26803;DHT22;14378;51.796;5.808;2024-02-28T03:39:17;3.00;99.90
26803;DHT22;14378;51.796;5.808;2024-02-28T03:41:18;3.00;99.90
26803;DHT22;14378;51.796;5.808;2024-02-28T03:43:19;3.00;99.90
26803;DHT22;14378;51.796;5.808;2024-02-28T03:45:20;3.00;99.90
26803;DHT22;14378;51.796;5.808;2024-02-28T03:47:21;3.00;99.90
26803;DHT22;14378;51.796;5.808;2024-02-28T03:49:22;3.00;99.90
26803;DHT22;14378;51.796;5.808;2024-02-28T03:51:23;3.00;99.90
26803;DHT22;14378;51.796;5.808;2024-02-28T03:53:24;3.00;99.90
26803;DHT22;14378;51.796;5.808;2024-02-28T03:55:25;3.00;99.90
26803;DHT22;14378;51.796;5.808;2024-02-28T03:57:26;3.00;99.90
26803;DHT22;14378;51.796;5.808;2024-02-28T03:59:27;3.00;99.90
26803;DHT22;14378;51.796;5.808;2024-02-28T04:01:28;3.00;99.90
26803;DHT22;14378;51.796;5.808;2024-02-28T04:03:29;3.00;99.90
26803;DHT22;14378;51.796;5.808;2024-02-28T04:05:31;3.00;99.90
26803;DHT22;14378;51.796;5.808;2024-02-28T04:07:32;3.00;99.90
26803;DHT22;14378;51.796;5.808;2024-02-28T04:09:34;3.00;99.90
26803;DHT22;14378;51.796;5.808;2024-02-28T04:11:37;3.00;99.90
26803;DHT22;14378;51.796;5.808;2024-02-28T04:13:39;3.00;99.90
26803;DHT22;14378;51.796;5.808;2024-02-28T04:15:40;2.90;99.90
26803;DHT22;14378;51.796;5.808;2024-02-28T04:17:41;3.00;99.90
26803;DHT22;14378;51.796;5.808;2024-02-28T04:19:42;3.00;99.90
26803;DHT22;14378;51.796;5.808;2024-02-28T04:21:43;3.00;99.90
26803;DHT22;14378;51.796;5.808;2024-02-28T04:23:44;3.00;99.90
26803;DHT22;14378;51.796;5.808;2024-02-28T04:25:45;3.00;99.90
26803;DHT22;14378;51.796;5.808;2024-02-28T04:27:45;3.00;99.90
26803;DHT22;14378;51.796;5.808;2024-02-28T04:29:47;3.00;99.90
26803;DHT22;14378;51.796;5.808;2024-02-28T04:31:48;3.00;99.90
26803;DHT22;14378;51.796;5.808;2024-02-28T04:33:49;3.00;99.90
26803;DHT22;14378;51.796;5.808;2024-02-28T04:35:50;3.00;99.90
26803;DHT22;14378;51.796;5.808;2024-02-28T04:37:51;3.00;99.90
26803;DHT22;14378;51.796;5.808;2024-02-28T04:39:52;3.00;99.90
26803;DHT22;14378;51.796;5.808;2024-02-28T04:41:53;3.00;99.90
26803;DHT22;14378;51.796;5.808;2024-02-28T04:43:54;3.00;99.90
26803;DHT22;14378;51.796;5.808;2024-02-28T04:45:54;3.00;99.90
26803;DHT22;14378;51.796;5.808;2024-02-28T04:47:55;3.00;99.90
26803;DHT22;14378;51.796;5.808;2024-02-28T04:49:58;3.00;99.90
26803;DHT22;14378;51.796;5.808;2024-02-28T04:51:59;3.00;99.90
26803;DHT22;14378;51.796;5.808;2024-02-28T04:54:05;3.00;99.90
26803;DHT22;14378;51.796;5.808;2024-02-28T04:56:11;3.00;99.90
26803;DHT22;14378;51.796;5.808;2024-02-28T04:58:12;3.00;99.90
26803;DHT22;14378;51.796;5.808;2024-02-28T05:00:14;3.00;99.90
26803;DHT22;14378;51.796;5.808;2024-02-28T05:02:16;3.00;99.90
26803;DHT22;14378;51.796;5.808;2024-02-28T05:04:17;3.00;99.90
26803;DHT22;14378;51.796;5.808;2024-02-28T05:06:21;3.00;99.90
26803;DHT22;14378;51.796;5.808;2024-02-28T05:08:22;3.00;99.90
26803;DHT22;14378;51.796;5.808;2024-02-28T05:10:23;3.00;99.90
26803;DHT22;14378;51.796;5.808;2024-02-28T05:12:23;3.00;99.90
26803;DHT22;14378;51.796;5.808;2024-02-28T05:14:24;3.00;99.90
26803;DHT22;14378;51.796;5.808;2024-02-28T05:16:25;3.00;99.90
26803;DHT22;14378;51.796;5.808;2024-02-28T05:18:26;3.00;99.90
26803;DHT22;14378;51.796;5.808;2024-02-28T05:20:33;3.00;99.90
26803;DHT22;14378;51.796;5.808;2024-02-28T05:22:34;3.00;99.90
26803;DHT22;14378;51.796;5.808;2024-02-28T05:24:40;2.90;99.90
26803;DHT22;14378;51.796;5.808;2024-02-28T05:26:44;2.90;99.90
26803;DHT22;14378;51.796;5.808;2024-02-28T05:28:45;2.90;99.90
26803;DHT22;14378;51.796;5.808;2024-02-28T05:30:46;2.90;99.90
26803;DHT22;14378;51.796;5.808;2024-02-28T05:32:47;2.90;99.90
26803;DHT22;14378;51.796;5.808;2024-02-28T05:34:48;2.90;99.90
26803;DHT22;14378;51.796;5.808;2024-02-28T05:36:49;2.90;99.90
26803;DHT22;14378;51.796;5.808;2024-02-28T05:38:52;2.90;99.90
26803;DHT22;14378;51.796;5.808;2024-02-28T05:40:53;2.90;99.90
26803;DHT22;14378;51.796;5.808;2024-02-28T05:42:58;2.80;99.90
26803;DHT22;14378;51.796;5.808;2024-02-28T05:45:02;2.80;99.90
26803;DHT22;14378;51.796;5.808;2024-02-28T05:47:03;2.80;99.90
26803;DHT22;14378;51.796;5.808;2024-02-28T05:49:05;2.80;99.90
26803;DHT22;14378;51.796;5.808;2024-02-28T05:51:06;2.80;99.90
26803;DHT22;14378;51.796;5.808;2024-02-28T05:53:07;2.80;99.90
26803;DHT22;14378;51.796;5.808;2024-02-28T05:55:08;2.80;99.90
26803;DHT22;14378;51.796;5.808;2024-02-28T05:57:09;2.80;99.90
26803;DHT22;14378;51.796;5.808;2024-02-28T05:59:10;2.80;99.90
26803;DHT22;14378;51.796;5.808;2024-02-28T06:01:15;2.80;99.90
26803;DHT22;14378;51.796;5.808;2024-02-28T06:03:18;2.80;99.90
26803;DHT22;14378;51.796;5.808;2024-02-28T06:05:18;2.80;99.90
26803;DHT22;14378;51.796;5.808;2024-02-28T06:07:19;2.80;99.90
26803;DHT22;14378;51.796;5.808;2024-02-28T06:09:20;2.80;99.90
26803;DHT22;14378;51.796;5.808;2024-02-28T06:11:21;2.80;99.90
26803;DHT22;14378;51.796;5.808;2024-02-28T06:13:27;2.90;99.90
26803;DHT22;14378;51.796;5.808;2024-02-28T06:15:30;2.80;99.90
26803;DHT22;14378;51.796;5.808;2024-02-28T06:17:31;2.80;99.90
26803;DHT22;14378;51.796;5.808;2024-02-28T06:19:32;2.80;99.90
26803;DHT22;14378;51.796;5.808;2024-02-28T06:21:33;2.80;99.90
26803;DHT22;14378;51.796;5.808;2024-02-28T06:23:34;2.80;99.90
26803;DHT22;14378;51.796;5.808;2024-02-28T06:25:35;2.70;99.90
26803;DHT22;14378;51.796;5.808;2024-02-28T06:27:41;2.70;99.90
26803;DHT22;14378;51.796;5.808;2024-02-28T06:29:41;2.70;99.90
26803;DHT22;14378;51.796;5.808;2024-02-28T06:31:42;2.70;99.90
26803;DHT22;14378;51.796;5.808;2024-02-28T06:33:44;2.60;99.90
26803;DHT22;14378;51.796;5.808;2024-02-28T06:35:45;2.60;99.90
26803;DHT22;14378;51.796;5.808;2024-02-28T06:37:46;2.70;99.90
26803;DHT22;14378;51.796;5.808;2024-02-28T06:39:50;2.60;99.90
26803;DHT22;14378;51.796;5.808;2024-02-28T06:41:51;2.70;99.90
26803;DHT22;14378;51.796;5.808;2024-02-28T06:43:58;2.70;99.90
26803;DHT22;14378;51.796;5.808;2024-02-28T06:46:02;2.60;99.90
26803;DHT22;14378;51.796;5.808;2024-02-28T06:48:04;2.60;99.90
26803;DHT22;14378;51.796;5.808;2024-02-28T06:50:06;2.60;99.90
26803;DHT22;14378;51.796;5.808;2024-02-28T06:52:07;2.60;99.90
26803;DHT22;14378;51.796;5.808;2024-02-28T06:54:13;2.70;99.90
26803;DHT22;14378;51.796;5.808;2024-02-28T06:56:19;2.60;99.90
26803;DHT22;14378;51.796;5.808;2024-02-28T06:58:21;2.60;99.90
26803;DHT22;14378;51.796;5.808;2024-02-28T07:00:22;2.60;99.90
26803;DHT22;14378;51.796;5.808;2024-02-28T07:02:22;2.60;99.90
26803;DHT22;14378;51.796;5.808;2024-02-28T07:04:23;2.60;99.90
26803;DHT22;14378;51.796;5.808;2024-02-28T07:06:24;2.60;99.90
26803;DHT22;14378;51.796;5.808;2024-02-28T07:08:25;2.60;99.90
26803;DHT22;14378;51.796;5.808;2024-02-28T07:10:32;2.70;99.90
26803;DHT22;14378;51.796;5.808;2024-02-28T07:12:33;2.70;99.90
26803;DHT22;14378;51.796;5.808;2024-02-28T07:14:34;2.70;99.90
26803;DHT22;14378;51.796;5.808;2024-02-28T07:16:35;2.70;99.90
26803;DHT22;14378;51.796;5.808;2024-02-28T07:18:36;2.70;99.90
26803;DHT22;14378;51.796;5.808;2024-02-28T07:20:37;2.70;99.90
26803;DHT22;14378;51.796;5.808;2024-02-28T07:22:38;2.70;99.90
26803;DHT22;14378;51.796;5.808;2024-02-28T07:24:41;2.70;99.90
26803;DHT22;14378;51.796;5.808;2024-02-28T07:26:42;2.70;99.90
26803;DHT22;14378;51.796;5.808;2024-02-28T07:28:43;2.70;99.90
26803;DHT22;14378;51.796;5.808;2024-02-28T07:30:43;2.70;99.90
26803;DHT22;14378;51.796;5.808;2024-02-28T07:32:49;2.70;99.90
26803;DHT22;14378;51.796;5.808;2024-02-28T07:34:50;2.80;99.90
26803;DHT22;14378;51.796;5.808;2024-02-28T07:36:51;2.80;99.90
26803;DHT22;14378;51.796;5.808;2024-02-28T07:38:52;2.80;99.90
26803;DHT22;14378;51.796;5.808;2024-02-28T07:40:53;2.90;99.90
26803;DHT22;14378;51.796;5.808;2024-02-28T07:42:54;2.90;99.90
26803;DHT22;14378;51.796;5.808;2024-02-28T07:44:55;2.90;99.90
26803;DHT22;14378;51.796;5.808;2024-02-28T07:46:58;3.00;99.90
26803;DHT22;14378;51.796;5.808;2024-02-28T07:49:00;3.00;99.90
26803;DHT22;14378;51.796;5.808;2024-02-28T07:51:01;3.00;99.90
26803;DHT22;14378;51.796;5.808;2024-02-28T07:53:04;3.00;99.90
26803;DHT22;14378;51.796;5.808;2024-02-28T07:55:16;3.10;99.90
26803;DHT22;14378;51.796;5.808;2024-02-28T07:57:19;3.20;99.90
26803;DHT22;14378;51.796;5.808;2024-02-28T07:59:25;3.20;99.90
26803;DHT22;14378;51.796;5.808;2024-02-28T08:01:33;3.20;99.90
26803;DHT22;14378;51.796;5.808;2024-02-28T08:04:00;3.20;99.90
26803;DHT22;14378;51.796;5.808;2024-02-28T08:06:03;3.30;99.90
26803;DHT22;14378;51.796;5.808;2024-02-28T08:08:07;3.30;99.90
26803;DHT22;14378;51.796;5.808;2024-02-28T08:10:09;3.30;99.90
26803;DHT22;14378;51.796;5.808;2024-02-28T08:12:11;3.40;99.90
26803;DHT22;14378;51.796;5.808;2024-02-28T08:14:12;3.40;99.90
26803;DHT22;14378;51.796;5.808;2024-02-28T08:16:19;3.50;99.90
26803;DHT22;14378;51.796;5.808;2024-02-28T08:18:20;3.50;99.90
26803;DHT22;14378;51.796;5.808;2024-02-28T08:20:21;3.60;99.90
26803;DHT22;14378;51.796;5.808;2024-02-28T08:22:21;3.70;99.90
26803;DHT22;14378;51.796;5.808;2024-02-28T08:24:22;3.70;99.90
26803;DHT22;14378;51.796;5.808;2024-02-28T08:26:24;3.80;99.90
26803;DHT22;14378;51.796;5.808;2024-02-28T08:28:25;3.80;99.90
26803;DHT22;14378;51.796;5.808;2024-02-28T08:30:25;3.90;99.90
26803;DHT22;14378;51.796;5.808;2024-02-28T08:32:27;3.90;99.90
26803;DHT22;14378;51.796;5.808;2024-02-28T08:34:28;4.00;99.90
26803;DHT22;14378;51.796;5.808;2024-02-28T08:36:32;4.00;99.90
26803;DHT22;14378;51.796;5.808;2024-02-28T08:38:32;4.00;99.90
26803;DHT22;14378;51.796;5.808;2024-02-28T08:40:37;4.10;99.90
26803;DHT22;14378;51.796;5.808;2024-02-28T08:42:38;4.20;99.90
26803;DHT22;14378;51.796;5.808;2024-02-28T08:44:39;4.30;99.90
26803;DHT22;14378;51.796;5.808;2024-02-28T08:46:49;4.40;99.90
26803;DHT22;14378;51.796;5.808;2024-02-28T08:48:53;4.50;99.90
26803;DHT22;14378;51.796;5.808;2024-02-28T08:50:54;4.50;99.90
26803;DHT22;14378;51.796;5.808;2024-02-28T08:52:54;4.60;99.90
26803;DHT22;14378;51.796;5.808;2024-02-28T08:54:56;4.70;99.90
26803;DHT22;14378;51.796;5.808;2024-02-28T08:56:57;4.70;99.90
26803;DHT22;14378;51.796;5.808;2024-02-28T08:58:57;4.80;99.90
26803;DHT22;14378;51.796;5.808;2024-02-28T09:00:58;4.80;99.90
26803;DHT22;14378;51.796;5.808;2024-02-28T09:02:59;4.80;99.90
26803;DHT22;14378;51.796;5.808;2024-02-28T09:05:00;4.90;99.90
26803;DHT22;14378;51.796;5.808;2024-02-28T09:07:01;4.90;99.90
26803;DHT22;14378;51.796;5.808;2024-02-28T09:09:02;4.90;99.90
26803;DHT22;14378;51.796;5.808;2024-02-28T09:11:04;5.00;99.90
26803;DHT22;14378;51.796;5.808;2024-02-28T09:13:17;5.00;99.90
26803;DHT22;14378;51.796;5.808;2024-02-28T09:15:21;5.10;99.90
26803;DHT22;14378;51.796;5.808;2024-02-28T09:17:22;5.10;99.90
26803;DHT22;14378;51.796;5.808;2024-02-28T09:19:23;5.20;99.90
26803;DHT22;14378;51.796;5.808;2024-02-28T09:21:23;5.20;99.90
26803;DHT22;14378;51.796;5.808;2024-02-28T09:23:30;5.40;99.90
26803;DHT22;14378;51.796;5.808;2024-02-28T09:25:31;5.40;99.90
26803;DHT22;14378;51.796;5.808;2024-02-28T09:27:33;5.50;99.90
26803;DHT22;14378;51.796;5.808;2024-02-28T09:29:34;5.50;99.90
26803;DHT22;14378;51.796;5.808;2024-02-28T09:31:35;5.60;99.90
26803;DHT22;14378;51.796;5.808;2024-02-28T09:33:37;5.70;99.90
26803;DHT22;14378;51.796;5.808;2024-02-28T09:35:43;5.70;99.90
26803;DHT22;14378;51.796;5.808;2024-02-28T09:37:44;5.80;99.90
26803;DHT22;14378;51.796;5.808;2024-02-28T09:39:46;5.90;99.90
26803;DHT22;14378;51.796;5.808;2024-02-28T09:41:51;5.90;99.90
26803;DHT22;14378;51.796;5.808;2024-02-28T09:43:53;5.90;99.90
26803;DHT22;14378;51.796;5.808;2024-02-28T09:46:13;6.00;99.90
26803;DHT22;14378;51.796;5.808;2024-02-28T09:48:16;6.00;99.90
26803;DHT22;14378;51.796;5.808;2024-02-28T09:50:26;6.00;99.90
26803;DHT22;14378;51.796;5.808;2024-02-28T09:52:28;6.10;99.90
26803;DHT22;14378;51.796;5.808;2024-02-28T09:54:30;6.10;99.90
26803;DHT22;14378;51.796;5.808;2024-02-28T09:56:32;6.10;99.90
26803;DHT22;14378;51.796;5.808;2024-02-28T09:58:33;6.20;99.90
26803;DHT22;14378;51.796;5.808;2024-02-28T10:00:36;6.20;99.90
26803;DHT22;14378;51.796;5.808;2024-02-28T10:02:39;6.30;99.90
26803;DHT22;14378;51.796;5.808;2024-02-28T10:04:41;6.30;99.90
26803;DHT22;14378;51.796;5.808;2024-02-28T10:06:42;6.40;99.90
26803;DHT22;14378;51.796;5.808;2024-02-28T10:08:43;6.50;99.90
26803;DHT22;14378;51.796;5.808;2024-02-28T10:10:48;6.60;99.90
26803;DHT22;14378;51.796;5.808;2024-02-28T10:12:49;6.60;99.90
26803;DHT22;14378;51.796;5.808;2024-02-28T10:14:50;6.70;99.90
26803;DHT22;14378;51.796;5.808;2024-02-28T10:16:55;6.80;99.90
26803;DHT22;14378;51.796;5.808;2024-02-28T10:18:56;6.80;99.90
26803;DHT22;14378;51.796;5.808;2024-02-28T10:20:57;7.00;99.90
26803;DHT22;14378;51.796;5.808;2024-02-28T10:22:58;7.00;99.90
26803;DHT22;14378;51.796;5.808;2024-02-28T10:24:58;7.10;99.90
26803;DHT22;14378;51.796;5.808;2024-02-28T10:27:01;7.10;99.90
26803;DHT22;14378;51.796;5.808;2024-02-28T10:29:03;7.20;99.90
26803;DHT22;14378;51.796;5.808;2024-02-28T10:31:05;7.30;99.90
26803;DHT22;14378;51.796;5.808;2024-02-28T10:33:15;7.30;99.90
26803;DHT22;14378;51.796;5.808;2024-02-28T10:35:19;7.40;99.90
26803;DHT22;14378;51.796;5.808;2024-02-28T10:37:22;7.50;99.90
26803;DHT22;14378;51.796;5.808;2024-02-28T10:39:26;7.50;99.90
26803;DHT22;14378;51.796;5.808;2024-02-28T10:41:32;7.50;99.90
26803;DHT22;14378;51.796;5.808;2024-02-28T10:43:37;7.60;99.90
26803;DHT22;14378;51.796;5.808;2024-02-28T10:45:39;7.70;99.90
26803;DHT22;14378;51.796;5.808;2024-02-28T10:47:40;7.70;99.90
26803;DHT22;14378;51.796;5.808;2024-02-28T10:49:43;7.90;99.90
26803;DHT22;14378;51.796;5.808;2024-02-28T10:51:47;7.90;99.90
26803;DHT22;14378;51.796;5.808;2024-02-28T10:54:09;8.00;99.90
26803;DHT22;14378;51.796;5.808;2024-02-28T10:56:12;8.00;99.90
26803;DHT22;14378;51.796;5.808;2024-02-28T10:58:15;8.00;99.90
26803;DHT22;14378;51.796;5.808;2024-02-28T11:00:18;8.10;99.90
26803;DHT22;14378;51.796;5.808;2024-02-28T11:02:19;8.10;99.90
26803;DHT22;14378;51.796;5.808;2024-02-28T11:04:21;8.20;99.90
26803;DHT22;14378;51.796;5.808;2024-02-28T11:06:28;8.20;99.90
26803;DHT22;14378;51.796;5.808;2024-02-28T11:08:32;8.30;99.90
26803;DHT22;14378;51.796;5.808;2024-02-28T11:10:41;8.30;99.90
26803;DHT22;14378;51.796;5.808;2024-02-28T11:12:43;8.40;99.90
26803;DHT22;14378;51.796;5.808;2024-02-28T11:14:59;8.40;99.90
26803;DHT22;14378;51.796;5.808;2024-02-28T11:19:02;8.60;99.90
26803;DHT22;14378;51.796;5.808;2024-02-28T11:21:15;8.60;99.90
26803;DHT22;14378;51.796;5.808;2024-02-28T11:23:19;8.70;99.90
26803;DHT22;14378;51.796;5.808;2024-02-28T11:25:20;8.70;99.90
26803;DHT22;14378;51.796;5.808;2024-02-28T11:27:22;8.80;99.90
26803;DHT22;14378;51.796;5.808;2024-02-28T11:29:28;8.80;99.90
26803;DHT22;14378;51.796;5.808;2024-02-28T11:31:32;8.90;99.90
26803;DHT22;14378;51.796;5.808;2024-02-28T11:33:32;9.00;99.90
26803;DHT22;14378;51.796;5.808;2024-02-28T11:35:37;9.00;99.90
26803;DHT22;14378;51.796;5.808;2024-02-28T11:37:38;9.10;99.90
26803;DHT22;14378;51.796;5.808;2024-02-28T11:39:39;9.00;99.90
26803;DHT22;14378;51.796;5.808;2024-02-28T11:41:40;9.10;99.90
26803;DHT22;14378;51.796;5.808;2024-02-28T11:43:41;9.10;99.90
26803;DHT22;14378;51.796;5.808;2024-02-28T11:45:42;9.10;99.90
26803;DHT22;14378;51.796;5.808;2024-02-28T11:47:44;9.10;99.90
26803;DHT22;14378;51.796;5.808;2024-02-28T11:49:49;9.10;99.90
26803;DHT22;14378;51.796;5.808;2024-02-28T11:51:52;9.20;99.90
26803;DHT22;14378;51.796;5.808;2024-02-28T11:53:52;9.30;99.90
26803;DHT22;14378;51.796;5.808;2024-02-28T11:55:54;9.30;99.90
26803;DHT22;14378;51.796;5.808;2024-02-28T11:57:56;9.40;99.90
26803;DHT22;14378;51.796;5.808;2024-02-28T11:59:56;9.30;99.90
26803;DHT22;14378;51.796;5.808;2024-02-28T12:02:01;9.30;99.90
26803;DHT22;14378;51.796;5.808;2024-02-28T12:04:17;9.30;99.90
26803;DHT22;14378;51.796;5.808;2024-02-28T12:06:19;9.40;99.90
26803;DHT22;14378;51.796;5.808;2024-02-28T12:08:20;9.40;99.90
26803;DHT22;14378;51.796;5.808;2024-02-28T12:10:25;9.50;99.90
26803;DHT22;14378;51.796;5.808;2024-02-28T12:12:29;9.50;99.90
26803;DHT22;14378;51.796;5.808;2024-02-28T12:14:36;9.60;99.90
26803;DHT22;14378;51.796;5.808;2024-02-28T12:16:39;9.60;99.90
26803;DHT22;14378;51.796;5.808;2024-02-28T12:18:41;9.70;99.90
26803;DHT22;14378;51.796;5.808;2024-02-28T12:20:42;9.80;99.90
26803;DHT22;14378;51.796;5.808;2024-02-28T12:22:45;9.80;99.90
26803;DHT22;14378;51.796;5.808;2024-02-28T12:24:47;9.80;99.90
26803;DHT22;14378;51.796;5.808;2024-02-28T12:26:48;9.90;99.90
26803;DHT22;14378;51.796;5.808;2024-02-28T12:28:49;9.90;99.90
26803;DHT22;14378;51.796;5.808;2024-02-28T12:30:50;10.00;99.90
26803;DHT22;14378;51.796;5.808;2024-02-28T12:32:54;10.00;99.90
26803;DHT22;14378;51.796;5.808;2024-02-28T12:34:56;10.00;99.90
26803;DHT22;14378;51.796;5.808;2024-02-28T12:36:57;10.10;99.90
26803;DHT22;14378;51.796;5.808;2024-02-28T12:39:00;10.10;99.90
26803;DHT22;14378;51.796;5.808;2024-02-28T12:41:07;10.20;99.90
26803;DHT22;14378;51.796;5.808;2024-02-28T12:43:08;10.20;99.90
26803;DHT22;14378;51.796;5.808;2024-02-28T12:45:09;10.30;99.90
26803;DHT22;14378;51.796;5.808;2024-02-28T12:47:10;10.30;99.90
26803;DHT22;14378;51.796;5.808;2024-02-28T12:49:11;10.30;99.90
26803;DHT22;14378;51.796;5.808;2024-02-28T12:53:55;10.40;99.90
26803;DHT22;14378;51.796;5.808;2024-02-28T12:55:57;10.30;99.90
26803;DHT22;14378;51.796;5.808;2024-02-28T12:57:58;10.30;99.90
26803;DHT22;14378;51.796;5.808;2024-02-28T13:00:01;10.40;99.90
26803;DHT22;14378;51.796;5.808;2024-02-28T13:02:03;10.30;99.90
26803;DHT22;14378;51.796;5.808;2024-02-28T13:04:05;10.20;99.90
26803;DHT22;14378;51.796;5.808;2024-02-28T13:06:06;10.20;99.90
26803;DHT22;14378;51.796;5.808;2024-02-28T13:08:07;10.20;99.90
26803;DHT22;14378;51.796;5.808;2024-02-28T13:10:08;10.20;99.90